createdAt,value
2022-09-06T00:01:46.589Z,20.30
2022-09-06T00:04:16.770Z,20.10
2022-09-06T00:06:46.793Z,20.10
2022-09-06T00:09:16.854Z,19.80
2022-09-06T00:11:46.890Z,19.80
2022-09-06T00:14:18.251Z,19.70
2022-09-06T00:16:48.299Z,19.70
2022-09-06T00:19:18.862Z,19.80
2022-09-06T00:21:48.922Z,19.90
2022-09-06T00:24:18.977Z,20.00
2022-09-06T00:26:48.987Z,20.00
2022-09-06T00:29:20.385Z,20.00
2022-09-06T00:31:50.468Z,20.00
2022-09-06T00:34:20.531Z,20.00
2022-09-06T00:36:50.573Z,19.90
2022-09-06T00:39:20.686Z,19.70
2022-09-06T00:41:51.126Z,19.60
2022-09-06T00:44:22.703Z,19.40
2022-09-06T00:46:56.139Z,19.40
2022-09-06T00:49:30.014Z,19.60
2022-09-06T00:52:05.277Z,19.60
2022-09-06T00:54:36.302Z,19.50
2022-09-06T00:57:07.047Z,19.40
2022-09-06T00:59:41.838Z,19.50
2022-09-06T01:02:12.927Z,19.50
2022-09-06T01:04:48.110Z,19.30
2022-09-06T01:07:45.204Z,19.10
2022-09-06T01:10:46.089Z,19.00
2022-09-06T01:13:35.207Z,18.80
2022-09-06T01:16:20.820Z,18.90
2022-09-06T01:19:31.927Z,18.80
2022-09-06T01:22:25.532Z,18.80
2022-09-06T01:25:18.969Z,18.90
2022-09-06T01:28:23.096Z,18.80
2022-09-06T01:31:10.427Z,18.80
2022-09-06T01:33:51.425Z,18.80
2022-09-06T01:36:28.260Z,18.80
2022-09-06T01:38:58.310Z,18.80
2022-09-06T01:41:29.391Z,18.80
2022-09-06T01:44:01.623Z,18.90
2022-09-06T01:46:44.476Z,19.00
2022-09-06T01:49:40.452Z,19.10
2022-09-06T01:52:19.414Z,18.90
2022-09-06T01:55:19.359Z,18.50
2022-09-06T01:58:16.395Z,18.40
2022-09-06T02:00:57.558Z,18.50
2022-09-06T02:03:38.641Z,18.50
2022-09-06T02:06:15.731Z,18.30
2022-09-06T02:08:51.637Z,18.40
2022-09-06T02:11:23.119Z,18.30
2022-09-06T02:13:59.529Z,18.20
2022-09-06T02:16:35.388Z,18.10
2022-09-06T02:19:13.223Z,18.10
2022-09-06T02:21:48.440Z,18.10
2022-09-06T02:24:27.026Z,18.00
2022-09-06T02:26:58.132Z,18.00
2022-09-06T02:29:29.007Z,18.00
2022-09-06T02:32:08.780Z,18.00
2022-09-06T02:34:43.184Z,18.00
2022-09-06T02:37:16.753Z,18.00
2022-09-06T02:39:47.349Z,18.10
2022-09-06T02:42:19.553Z,17.90
2022-09-06T02:44:50.201Z,17.90
2022-09-06T02:47:21.808Z,17.80
2022-09-06T02:49:51.474Z,17.80
2022-09-06T02:52:21.088Z,17.80
2022-09-06T02:54:50.739Z,17.70
2022-09-06T02:57:20.879Z,17.60
2022-09-06T02:59:51.427Z,17.60
2022-09-06T03:02:22.380Z,17.70
2022-09-06T03:04:51.674Z,17.70
2022-09-06T03:07:22.395Z,17.80
2022-09-06T03:09:53.056Z,17.90
2022-09-06T03:12:23.722Z,17.90
2022-09-06T03:14:55.121Z,17.90
2022-09-06T03:17:26.797Z,17.70
2022-09-06T03:19:57.155Z,17.70
2022-09-06T03:22:27.588Z,17.70
2022-09-06T03:24:58.424Z,17.60
2022-09-06T03:27:29.313Z,17.60
2022-09-06T03:29:59.349Z,17.70
2022-09-06T03:32:30.739Z,17.60
2022-09-06T03:35:00.854Z,17.50
2022-09-06T03:37:31.244Z,17.40
2022-09-06T03:40:01.413Z,17.30
2022-09-06T03:42:31.644Z,17.30
2022-09-06T03:45:01.693Z,17.20
2022-09-06T03:47:33.297Z,17.20
2022-09-06T03:50:03.470Z,17.20
2022-09-06T03:52:33.693Z,17.10
2022-09-06T03:55:04.097Z,16.90
2022-09-06T03:57:34.782Z,17.00
2022-09-06T04:00:05.713Z,17.00
2022-09-06T04:02:42.848Z,17.00
2022-09-06T04:05:13.390Z,16.90
2022-09-06T04:07:43.849Z,16.90
2022-09-06T04:10:14.384Z,16.80
2022-09-06T04:12:45.368Z,16.80
2022-09-06T04:15:15.598Z,16.80
2022-09-06T04:17:48.838Z,16.80
2022-09-06T04:20:19.603Z,16.80
2022-09-06T04:22:49.639Z,17.00
2022-09-06T04:25:19.928Z,16.90
2022-09-06T04:27:49.999Z,17.00
2022-09-06T04:30:20.186Z,17.00
2022-09-06T04:32:51.643Z,17.00
2022-09-06T04:35:21.835Z,16.90
2022-09-06T04:37:52.984Z,17.00
2022-09-06T04:40:23.165Z,17.00
2022-09-06T04:42:53.222Z,17.00
2022-09-06T04:45:24.851Z,17.20
2022-09-06T04:47:56.457Z,17.30
2022-09-06T04:50:26.683Z,17.30
2022-09-06T04:53:07.540Z,17.30
2022-09-06T04:55:38.290Z,17.30
2022-09-06T04:58:09.299Z,17.30
2022-09-06T05:00:40.163Z,17.30
2022-09-06T05:03:11.174Z,17.30
2022-09-06T05:05:40.902Z,17.20
2022-09-06T05:08:10.526Z,17.00
2022-09-06T05:10:40.187Z,17.00
2022-09-06T05:13:10.221Z,17.00
2022-09-06T05:15:39.951Z,17.00
2022-09-06T05:18:15.941Z,17.00
2022-09-06T05:20:51.774Z,17.00
2022-09-06T05:23:21.439Z,16.90
2022-09-06T05:25:51.749Z,17.00
2022-09-06T05:28:22.004Z,17.00
2022-09-06T05:30:51.871Z,17.00
2022-09-06T05:33:25.923Z,17.00
2022-09-06T05:35:55.900Z,16.90
2022-09-06T05:38:28.137Z,16.90
2022-09-06T05:40:59.241Z,17.00
2022-09-06T05:43:28.694Z,17.00
2022-09-06T05:45:58.274Z,17.10
2022-09-06T05:48:33.293Z,17.20
2022-09-06T05:51:09.303Z,17.20
2022-09-06T05:53:40.677Z,17.20
2022-09-06T05:56:11.919Z,17.30
2022-09-06T05:58:41.707Z,17.20
2022-09-06T06:01:19.695Z,17.20
2022-09-06T06:03:57.044Z,17.20
2022-09-06T06:06:28.417Z,17.20
2022-09-06T06:08:59.190Z,17.20
2022-09-06T06:11:31.058Z,17.30
2022-09-06T06:14:01.203Z,17.40
2022-09-06T06:16:31.614Z,17.40
2022-09-06T06:19:03.404Z,17.40
2022-09-06T06:21:35.867Z,17.40
2022-09-06T06:24:08.076Z,17.50
2022-09-06T06:26:39.692Z,17.50
2022-09-06T06:29:10.216Z,17.60
2022-09-06T06:31:42.038Z,17.60
2022-09-06T06:34:13.627Z,17.50
2022-09-06T06:36:44.344Z,17.60
2022-09-06T06:39:14.643Z,17.70
2022-09-06T06:41:45.350Z,17.70
2022-09-06T06:44:35.809Z,17.80
2022-09-06T06:47:07.128Z,17.90
2022-09-06T06:49:38.624Z,17.90
2022-09-06T06:52:08.893Z,17.90
2022-09-06T06:54:39.121Z,17.80
2022-09-06T06:57:10.129Z,17.90
2022-09-06T06:59:40.778Z,17.90
2022-09-06T07:02:11.392Z,18.00
2022-09-06T07:04:43.099Z,18.10
2022-09-06T07:12:54.284Z,18.40
2022-09-06T07:15:24.710Z,18.60
2022-09-06T07:17:55.839Z,18.70
2022-09-06T07:20:28.007Z,18.90
2022-09-06T07:25:56.452Z,19.10
2022-09-06T07:28:26.761Z,19.20
2022-09-06T07:30:58.227Z,19.30
2022-09-06T07:33:29.092Z,19.40
2022-09-06T07:36:03.640Z,19.50
2022-09-06T07:38:35.151Z,19.60
2022-09-06T07:41:07.978Z,19.80
2022-09-06T07:43:38.517Z,19.90
2022-09-06T07:46:11.005Z,20.00
2022-09-06T07:48:45.263Z,20.00
2022-09-06T07:51:19.101Z,20.10
2022-09-06T07:54:06.876Z,20.20
2022-09-06T07:56:43.618Z,20.30
2022-09-06T07:59:13.806Z,20.40
2022-09-06T08:01:44.573Z,20.40
2022-09-06T08:04:16.501Z,20.50
2022-09-06T08:09:42.391Z,20.60
2022-09-06T08:12:12.768Z,20.60
2022-09-06T08:14:43.200Z,20.60
2022-09-06T08:17:13.458Z,20.60
2022-09-06T08:19:43.507Z,20.60
2022-09-06T08:22:15.028Z,20.70
2022-09-06T08:24:45.536Z,20.90
2022-09-06T08:27:15.683Z,20.90
2022-09-06T08:29:45.883Z,21.10
2022-09-06T08:32:16.986Z,21.20
2022-09-06T08:34:47.146Z,21.40
2022-09-06T08:37:21.983Z,21.60
2022-09-06T08:39:55.067Z,21.80
2022-09-06T08:42:25.367Z,21.80
2022-09-06T08:44:58.662Z,21.80
2022-09-06T08:47:29.507Z,21.70
2022-09-06T08:50:07.416Z,21.70
2022-09-06T08:53:16.616Z,21.80
2022-09-06T08:55:55.110Z,21.80
2022-09-06T08:58:41.501Z,21.90
2022-09-06T09:01:19.517Z,21.90
2022-09-06T09:03:50.347Z,21.90
2022-09-06T09:06:20.419Z,21.90
2022-09-06T09:09:05.064Z,22.00
2022-09-06T09:11:37.896Z,22.00
2022-09-06T09:14:17.193Z,22.10
2022-09-06T09:16:50.650Z,22.00
2022-09-06T09:19:20.800Z,22.20
2022-09-06T09:21:51.312Z,22.20
2022-09-06T09:24:24.295Z,22.30
2022-09-06T09:27:00.399Z,22.40
2022-09-06T09:29:35.701Z,22.40
2022-09-06T09:32:06.819Z,22.40
2022-09-06T09:34:40.439Z,22.50
2022-09-06T09:40:19.107Z,22.70
2022-09-06T09:42:49.314Z,22.80
2022-09-06T09:45:29.956Z,22.90
2022-09-06T09:48:16.482Z,23.10
2022-09-06T09:50:46.761Z,23.20
2022-09-06T09:53:20.928Z,23.20
2022-09-06T09:55:58.720Z,23.20
2022-09-06T09:58:36.358Z,23.10
2022-09-06T10:01:19.052Z,23.00
2022-09-06T10:09:37.479Z,22.80
2022-09-06T10:12:14.417Z,22.80
2022-09-06T10:14:48.213Z,22.70
2022-09-06T10:17:30.635Z,22.60
2022-09-06T10:20:08.398Z,22.50
2022-09-06T10:22:52.618Z,22.50
2022-09-06T10:25:49.799Z,22.50
2022-09-06T10:28:41.810Z,22.50
2022-09-06T10:31:42.157Z,22.60
2022-09-06T10:34:54.833Z,22.60
2022-09-06T10:37:44.367Z,22.60
2022-09-06T10:40:28.887Z,22.60
2022-09-06T10:43:04.205Z,22.60
2022-09-06T10:45:54.607Z,22.50
2022-09-06T10:48:31.436Z,22.50
2022-09-06T10:51:13.111Z,22.40
2022-09-06T10:53:52.650Z,22.30
2022-09-06T10:56:36.302Z,22.20
2022-09-06T11:02:27.010Z,21.90
2022-09-06T11:10:57.575Z,21.50
2022-09-06T11:13:30.722Z,21.40
2022-09-06T11:16:10.153Z,21.40
2022-09-06T11:18:49.443Z,21.20
2022-09-06T11:22:09.011Z,21.20
2022-09-06T11:25:02.252Z,21.10
2022-09-06T11:27:41.542Z,21.00
2022-09-06T11:30:18.743Z,21.00
2022-09-06T11:32:52.825Z,20.90
2022-09-06T11:35:32.624Z,20.80
2022-09-06T11:38:19.717Z,20.70
2022-09-06T11:40:59.677Z,20.70
2022-09-06T11:43:49.936Z,20.70
2022-09-06T11:47:01.185Z,20.50
2022-09-06T11:49:41.800Z,20.30
2022-09-06T11:53:12.820Z,20.00
2022-09-06T11:55:47.523Z,19.80
2022-09-06T11:58:32.130Z,19.70
2022-09-06T12:01:40.847Z,19.70
2022-09-06T12:04:14.275Z,19.70
2022-09-06T12:07:08.298Z,19.60
2022-09-06T12:09:42.511Z,19.60
2022-09-06T12:12:33.913Z,19.60
2022-09-06T12:15:30.197Z,19.60
2022-09-06T12:18:02.056Z,19.50
2022-09-06T12:21:06.090Z,19.40
2022-09-06T12:23:45.665Z,19.40
2022-09-06T12:26:36.305Z,19.40
2022-09-06T12:29:14.204Z,19.60
2022-09-06T12:31:52.248Z,19.80
2022-09-06T12:34:27.717Z,20.00
2022-09-06T12:37:02.043Z,20.20
2022-09-06T12:39:32.517Z,20.40
2022-09-06T12:42:07.419Z,20.60
2022-09-06T12:44:43.875Z,20.80
2022-09-06T12:47:21.358Z,21.00
2022-09-06T12:50:06.668Z,21.30
2022-09-06T12:52:44.763Z,21.60
2022-09-06T12:55:22.085Z,21.90
2022-09-06T12:57:55.815Z,22.20
2022-09-06T13:00:32.687Z,22.50
2022-09-06T13:03:16.424Z,22.60
2022-09-06T13:05:48.592Z,22.70
2022-09-06T13:08:32.696Z,22.80
2022-09-06T13:11:04.694Z,23.00
2022-09-06T13:13:34.925Z,23.10
2022-09-06T13:16:07.121Z,23.30
2022-09-06T13:18:41.337Z,23.50
2022-09-06T13:21:14.766Z,23.50
2022-09-06T13:23:48.360Z,23.60
2022-09-06T13:26:32.860Z,23.70
2022-09-06T13:29:24.361Z,23.90
2022-09-06T13:31:58.822Z,23.80
2022-09-06T13:34:31.985Z,23.80
2022-09-06T13:37:06.852Z,23.90
2022-09-06T13:39:39.420Z,23.90
2022-09-06T13:42:12.293Z,23.90
2022-09-06T13:44:44.045Z,24.00
2022-09-06T13:47:15.547Z,24.10
2022-09-06T13:49:46.420Z,24.30
2022-09-06T13:52:18.224Z,24.40
2022-09-06T13:54:48.731Z,24.50
2022-09-06T13:57:23.963Z,24.60
2022-09-06T13:59:54.900Z,24.70
2022-09-06T14:02:26.673Z,24.70
2022-09-06T14:04:57.095Z,24.80
2022-09-06T14:07:27.468Z,24.80
2022-09-06T14:09:57.538Z,24.80
2022-09-06T14:12:27.909Z,24.90
2022-09-06T14:14:58.287Z,24.90
2022-09-06T14:17:30.017Z,25.00
2022-09-06T14:20:00.459Z,25.10
2022-09-06T14:22:30.886Z,25.10
2022-09-06T14:25:01.531Z,25.10
2022-09-06T14:27:32.757Z,25.10
2022-09-06T14:30:03.147Z,25.10
2022-09-06T14:32:35.629Z,25.10
2022-09-06T14:35:06.674Z,25.10
2022-09-06T14:37:37.712Z,25.20
2022-09-06T14:40:10.716Z,25.20
2022-09-06T14:42:41.186Z,25.20
2022-09-06T14:45:12.840Z,25.10
2022-09-06T14:47:44.762Z,25.00
2022-09-06T14:50:15.935Z,25.10
2022-09-06T14:52:46.549Z,25.20
2022-09-06T14:55:17.052Z,25.30
2022-09-06T14:57:49.374Z,25.30
2022-09-06T15:00:19.715Z,25.30
2022-09-06T15:02:51.614Z,25.30
2022-09-06T15:05:22.094Z,25.30
2022-09-06T15:07:52.790Z,25.30
2022-09-06T15:10:23.366Z,25.30
2022-09-06T15:12:54.193Z,25.20
2022-09-06T15:15:24.346Z,25.20
2022-09-06T15:17:56.708Z,25.10
2022-09-06T15:20:27.149Z,25.20
2022-09-06T15:23:21.839Z,25.10
2022-09-06T15:25:53.451Z,25.20
2022-09-06T15:28:23.749Z,25.20
2022-09-06T15:30:54.713Z,25.00
2022-09-06T15:33:29.489Z,25.10
2022-09-06T15:36:05.943Z,25.20
2022-09-06T15:38:36.574Z,25.30
2022-09-06T15:41:09.382Z,25.10
2022-09-06T15:43:44.505Z,25.10
2022-09-06T15:46:15.086Z,25.00
2022-09-06T15:48:49.155Z,25.00
2022-09-06T15:51:21.681Z,24.80
2022-09-06T15:53:52.244Z,24.80
2022-09-06T15:56:22.679Z,24.60
2022-09-06T15:58:52.819Z,24.60
2022-09-06T16:01:25.754Z,24.70
2022-09-06T16:04:03.571Z,24.60
2022-09-06T16:06:37.678Z,24.60
2022-09-06T16:09:13.707Z,24.60
2022-09-06T16:11:45.335Z,24.70
2022-09-06T16:14:17.887Z,24.80
2022-09-06T16:16:48.755Z,24.80
2022-09-06T16:19:20.528Z,24.70
2022-09-06T16:21:51.218Z,24.70
2022-09-06T16:24:22.311Z,24.70
2022-09-06T16:26:53.125Z,24.70
2022-09-06T16:29:24.776Z,24.60
2022-09-06T16:31:59.657Z,24.70
2022-09-06T16:34:31.924Z,24.70
2022-09-06T16:37:07.774Z,24.60
2022-09-06T16:39:38.569Z,24.50
2022-09-06T16:42:10.024Z,24.40
2022-09-06T16:44:42.051Z,24.50
2022-09-06T16:47:16.482Z,24.50
2022-09-06T16:49:48.785Z,24.50
2022-09-06T16:52:19.477Z,24.50
2022-09-06T16:54:50.257Z,24.40
2022-09-06T16:57:22.266Z,24.30
2022-09-06T16:59:52.904Z,24.30
2022-09-06T17:02:23.714Z,24.20
2022-09-06T17:04:55.910Z,24.20
2022-09-06T17:07:26.650Z,24.20
2022-09-06T17:09:57.388Z,24.30
2022-09-06T17:12:29.271Z,24.20
2022-09-06T17:14:59.931Z,24.10
2022-09-06T17:17:29.633Z,24.10
2022-09-06T17:20:01.610Z,24.10
2022-09-06T17:22:32.322Z,24.10
2022-09-06T17:25:03.079Z,24.00
2022-09-06T17:27:35.180Z,23.90
2022-09-06T17:30:06.239Z,23.80
2022-09-06T17:32:37.039Z,23.70
2022-09-06T17:35:10.665Z,23.70
2022-09-06T17:37:41.387Z,23.60
2022-09-06T17:40:13.720Z,23.60
2022-09-06T17:42:44.844Z,23.50
2022-09-06T17:45:15.619Z,23.50
2022-09-06T17:47:46.279Z,23.50
2022-09-06T17:50:18.517Z,23.40
2022-09-06T17:52:51.147Z,23.40
2022-09-06T17:55:21.942Z,23.20
2022-09-06T17:57:52.583Z,23.20
2022-09-06T18:00:23.382Z,23.10
2022-09-06T18:02:54.079Z,22.90
2022-09-06T18:05:26.837Z,22.80
2022-09-06T18:07:57.516Z,22.70
2022-09-06T18:10:28.185Z,22.70
2022-09-06T18:12:58.499Z,22.60
2022-09-06T18:15:29.361Z,22.60
2022-09-06T18:18:00.313Z,22.50
2022-09-06T18:20:32.603Z,22.40
2022-09-06T18:23:03.256Z,22.40
2022-09-06T18:25:33.981Z,22.40
2022-09-06T18:28:04.636Z,22.40
2022-09-06T18:30:35.284Z,22.40
2022-09-06T18:33:06.052Z,22.30
2022-09-06T18:35:44.088Z,22.20
2022-09-06T18:38:14.852Z,22.00
2022-09-06T18:40:54.945Z,21.90
2022-09-06T18:43:29.371Z,21.90
2022-09-06T18:46:05.984Z,21.90
2022-09-06T18:48:37.738Z,21.90
2022-09-06T18:51:11.817Z,22.00
2022-09-06T18:53:44.744Z,22.00
2022-09-06T18:56:17.031Z,21.90
2022-09-06T18:58:47.588Z,21.90
2022-09-06T19:01:21.874Z,21.80
2022-09-06T19:03:54.445Z,21.60
2022-09-06T19:06:27.958Z,21.60
2022-09-06T19:09:02.793Z,21.40
2022-09-06T19:11:34.013Z,21.40
2022-09-06T19:14:05.052Z,21.30
2022-09-06T19:16:36.010Z,21.30
2022-09-06T19:19:09.785Z,21.30
2022-09-06T19:21:42.681Z,21.30
2022-09-06T19:24:15.988Z,21.30
2022-09-06T19:26:47.703Z,21.30
2022-09-06T19:29:20.628Z,21.30
2022-09-06T19:31:52.205Z,21.20
2022-09-06T19:34:22.753Z,21.30
2022-09-06T19:36:55.324Z,21.20
2022-09-06T19:39:34.834Z,21.20
2022-09-06T19:42:07.182Z,21.00
2022-09-06T19:44:36.893Z,21.00
2022-09-06T19:47:06.758Z,20.90
2022-09-06T19:49:36.379Z,20.80
2022-09-06T19:52:09.643Z,20.70
2022-09-06T19:54:39.973Z,20.70
2022-09-06T19:57:09.619Z,20.70
2022-09-06T19:59:39.883Z,20.70
2022-09-06T20:02:10.959Z,20.70
2022-09-06T20:04:41.450Z,20.60
2022-09-06T20:07:12.407Z,20.60
2022-09-06T20:09:42.215Z,20.50
2022-09-06T20:12:12.124Z,20.50
2022-09-06T20:14:41.965Z,20.40
2022-09-06T20:17:32.895Z,20.40
2022-09-06T20:20:01.420Z,20.30
2022-09-06T20:22:32.318Z,20.30
2022-09-06T20:25:01.755Z,20.20
2022-09-06T20:27:31.483Z,20.10
2022-09-06T20:30:01.550Z,20.00
2022-09-06T20:32:31.963Z,20.00
2022-09-06T20:35:01.647Z,19.80
2022-09-06T20:37:32.436Z,19.70
2022-09-06T20:40:02.022Z,19.70
2022-09-06T20:42:31.691Z,19.70
2022-09-06T20:45:01.252Z,19.60
2022-09-06T20:47:31.814Z,19.60
2022-09-06T20:50:01.721Z,19.70
2022-09-06T20:52:32.737Z,19.70
2022-09-06T20:55:02.579Z,19.70
2022-09-06T20:57:32.759Z,19.70
2022-09-06T21:00:02.932Z,19.60
2022-09-06T21:02:32.535Z,19.60
2022-09-06T21:05:02.141Z,19.60
2022-09-06T21:07:33.295Z,19.60
2022-09-06T21:10:03.051Z,19.50
2022-09-06T21:12:32.966Z,19.40
2022-09-06T21:15:03.043Z,19.30
2022-09-06T21:17:33.375Z,19.20
2022-09-06T21:20:04.638Z,19.10
2022-09-06T21:22:36.062Z,19.10
2022-09-06T21:25:06.877Z,19.00
2022-09-06T21:27:37.785Z,18.90
2022-09-06T21:30:09.114Z,18.80
2022-09-06T21:32:39.512Z,18.80
2022-09-06T21:35:11.163Z,18.70
2022-09-06T21:37:42.840Z,18.70
2022-09-06T21:40:13.757Z,18.70
2022-09-06T21:42:44.188Z,18.70
2022-09-06T21:45:15.096Z,18.70
2022-09-06T21:47:45.749Z,18.70
2022-09-06T21:50:16.143Z,18.70
2022-09-06T21:52:47.803Z,18.70
2022-09-06T21:55:18.350Z,18.70
2022-09-06T21:57:48.668Z,18.70
2022-09-06T22:00:21.207Z,18.70
2022-09-06T22:02:51.980Z,18.70
2022-09-06T22:05:22.381Z,18.60
2022-09-06T22:07:54.371Z,18.70
2022-09-06T22:10:26.731Z,18.60
2022-09-06T22:12:57.311Z,18.70
2022-09-06T22:15:27.641Z,18.70
2022-09-06T22:17:58.189Z,18.70
2022-09-06T22:20:28.506Z,18.70
2022-09-06T22:23:00.170Z,18.70
2022-09-06T22:25:31.124Z,18.70
2022-09-06T22:28:01.805Z,18.70
2022-09-06T22:30:32.146Z,18.70
2022-09-06T22:33:02.531Z,18.70
2022-09-06T22:35:33.001Z,18.60
2022-09-06T22:38:04.674Z,18.60
2022-09-06T22:40:35.092Z,18.60
2022-09-06T22:43:05.415Z,18.60
2022-09-06T22:45:36.029Z,18.50
2022-09-06T22:48:06.777Z,18.50
2022-09-06T22:50:37.348Z,18.50
2022-09-06T22:53:09.545Z,18.40
2022-09-06T22:55:40.129Z,18.40
2022-09-06T22:58:10.615Z,18.40
2022-09-06T23:00:41.073Z,18.30
2022-09-06T23:03:11.678Z,18.30
2022-09-06T23:05:42.073Z,18.30
2022-09-06T23:08:14.860Z,18.30
2022-09-06T23:10:46.697Z,18.20
2022-09-06T23:13:17.276Z,18.20
2022-09-06T23:15:48.136Z,18.20
2022-09-06T23:18:18.675Z,18.10
2022-09-06T23:20:49.149Z,18.10
2022-09-06T23:23:21.096Z,18.10
2022-09-06T23:25:51.649Z,18.10
2022-09-06T23:28:22.131Z,18.10
2022-09-06T23:30:52.595Z,18.00
2022-09-06T23:33:23.125Z,18.00
2022-09-06T23:35:58.001Z,18.00
2022-09-06T23:38:29.960Z,17.90
2022-09-06T23:41:00.601Z,17.90
2022-09-06T23:43:31.352Z,17.90
2022-09-06T23:46:02.354Z,17.90
2022-09-06T23:48:33.050Z,18.00
2022-09-06T23:51:03.679Z,18.00
2022-09-06T23:53:35.936Z,17.90
2022-09-06T23:56:07.118Z,18.00
2022-09-06T23:58:38.405Z,18.00
